createdAt,value
2023-05-17T00:00:52.055Z,98731.47
2023-05-17T00:03:19.855Z,98732.28
2023-05-17T00:05:47.383Z,98741.38
2023-05-17T00:08:14.958Z,98735.50
2023-05-17T00:10:43.398Z,98736.69
2023-05-17T00:13:11.166Z,98740.25
2023-05-17T00:15:38.598Z,98740.47
2023-05-17T00:18:06.595Z,98742.34
2023-05-17T00:20:34.835Z,98744.25
2023-05-17T00:23:03.120Z,98741.16
2023-05-17T00:25:31.073Z,98734.66
2023-05-17T00:27:58.783Z,98742.19
2023-05-17T00:30:26.273Z,98742.81
2023-05-17T00:32:54.059Z,98739.72
2023-05-17T00:35:21.840Z,98735.50
2023-05-17T00:37:49.425Z,98735.06
2023-05-17T00:40:17.409Z,98736.94
2023-05-17T00:42:44.842Z,98724.59
2023-05-17T00:45:12.339Z,98732.53
2023-05-17T00:47:41.053Z,98723.28
2023-05-17T00:50:08.982Z,98725.78
2023-05-17T00:52:36.700Z,98733.31
2023-05-17T00:55:04.733Z,98741.47
2023-05-17T00:57:32.944Z,98742.28
2023-05-17T01:00:02.023Z,98738.09
2023-05-17T01:02:32.697Z,98740.41
2023-05-17T01:05:00.596Z,98737.91
2023-05-17T01:07:29.166Z,98736.88
2023-05-17T01:09:57.348Z,98746.25
2023-05-17T01:12:37.207Z,98753.69
2023-05-17T01:15:13.973Z,98756.63
2023-05-17T01:17:59.798Z,98756.00
2023-05-17T01:20:44.590Z,98759.59
2023-05-17T01:23:36.114Z,98748.72
2023-05-17T01:26:09.502Z,98747.88
2023-05-17T01:28:41.060Z,98749.75
2023-05-17T01:31:09.612Z,98741.41
2023-05-17T01:33:38.169Z,98742.91
2023-05-17T01:36:06.277Z,98733.50
2023-05-17T01:38:34.802Z,98722.25
2023-05-17T01:41:09.607Z,98715.94
2023-05-17T01:43:58.401Z,98707.97
2023-05-17T01:46:32.910Z,98707.19
2023-05-17T01:49:13.568Z,98700.94
2023-05-17T01:51:48.965Z,98693.22
2023-05-17T01:54:22.424Z,98690.50
2023-05-17T01:56:56.626Z,98691.34
2023-05-17T01:59:25.590Z,98692.78
2023-05-17T02:01:57.469Z,98698.00
2023-05-17T02:04:25.388Z,98703.03
2023-05-17T02:06:53.404Z,98709.19
2023-05-17T02:09:21.068Z,98704.56
2023-05-17T02:11:49.274Z,98713.09
2023-05-17T02:14:17.006Z,98715.63
2023-05-17T02:16:44.551Z,98717.25
2023-05-17T02:19:14.217Z,98721.25
2023-05-17T02:21:41.996Z,98718.47
2023-05-17T02:24:09.675Z,98720.22
2023-05-17T02:26:37.392Z,98727.31
2023-05-17T02:29:05.138Z,98733.00
2023-05-17T02:31:32.654Z,98735.91
2023-05-17T02:34:00.498Z,98740.72
2023-05-17T02:36:28.449Z,98744.75
2023-05-17T02:38:55.965Z,98759.81
2023-05-17T02:41:23.445Z,98764.00
2023-05-17T02:43:51.459Z,98765.22
2023-05-17T02:46:18.922Z,98766.72
2023-05-17T02:48:46.422Z,98764.19
2023-05-17T02:51:14.306Z,98768.47
2023-05-17T02:53:41.874Z,98767.06
2023-05-17T02:56:09.589Z,98763.84
2023-05-17T02:58:37.360Z,98763.84
2023-05-17T03:01:05.704Z,98771.94
2023-05-17T03:03:33.473Z,98763.91
2023-05-17T03:06:02.637Z,98766.75
2023-05-17T03:08:30.359Z,98760.91
2023-05-17T03:10:58.496Z,98765.13
2023-05-17T03:13:26.356Z,98771.66
2023-05-17T03:15:53.854Z,98772.34
2023-05-17T03:18:21.718Z,98776.63
2023-05-17T03:20:49.675Z,98777.69
2023-05-17T03:23:18.230Z,98787.78
2023-05-17T03:25:46.340Z,98783.47
2023-05-17T03:28:14.581Z,98779.50
2023-05-17T03:30:42.138Z,98785.88
2023-05-17T03:33:09.964Z,98781.91
2023-05-17T03:35:37.889Z,98791.38
2023-05-17T03:38:05.363Z,98797.94
2023-05-17T03:40:33.345Z,98798.50
2023-05-17T03:43:01.555Z,98800.72
2023-05-17T03:45:29.782Z,98802.06
2023-05-17T03:47:57.347Z,98801.69
2023-05-17T03:50:26.003Z,98812.16
2023-05-17T03:52:53.464Z,98810.75
2023-05-17T03:55:20.958Z,98823.00
2023-05-17T03:57:49.479Z,98830.41
2023-05-17T04:00:21.828Z,98825.16
2023-05-17T04:02:50.494Z,98828.88
2023-05-17T04:05:19.615Z,98832.88
2023-05-17T04:07:47.794Z,98840.25
2023-05-17T04:10:15.317Z,98839.41
2023-05-17T04:12:43.134Z,98852.69
2023-05-17T04:15:11.139Z,98845.69
2023-05-17T04:17:39.091Z,98848.84
2023-05-17T04:20:07.371Z,98837.78
2023-05-17T04:22:35.114Z,98845.47
2023-05-17T04:25:02.633Z,98843.28
2023-05-17T04:27:30.564Z,98852.31
2023-05-17T04:29:58.420Z,98846.12
2023-05-17T04:32:26.127Z,98854.00
2023-05-17T04:34:54.075Z,98849.69
2023-05-17T04:37:21.752Z,98861.38
2023-05-17T04:39:49.998Z,98880.66
2023-05-17T04:42:17.797Z,98877.75
2023-05-17T04:44:45.943Z,98882.91
2023-05-17T04:47:14.062Z,98888.44
2023-05-17T04:49:41.912Z,98886.38
2023-05-17T04:52:09.411Z,98896.91
2023-05-17T04:54:36.930Z,98894.19
2023-05-17T04:57:05.167Z,98897.66
2023-05-17T04:59:34.501Z,98908.69
2023-05-17T05:02:02.068Z,98906.75
2023-05-17T05:04:30.151Z,98915.81
2023-05-17T05:06:57.635Z,98916.03
2023-05-17T05:09:25.091Z,98907.28
2023-05-17T05:11:53.183Z,98902.41
2023-05-17T05:14:21.042Z,98903.91
2023-05-17T05:16:49.328Z,98899.78
2023-05-17T05:19:17.447Z,98897.97
2023-05-17T05:21:46.447Z,98900.50
2023-05-17T05:24:14.187Z,98897.81
2023-05-17T05:26:42.917Z,98913.75
2023-05-17T05:29:10.633Z,98917.34
2023-05-17T05:31:39.181Z,98916.44
2023-05-17T05:34:07.649Z,98918.34
2023-05-17T05:36:35.248Z,98925.25
2023-05-17T05:39:02.837Z,98923.88
2023-05-17T05:41:31.426Z,98931.25
2023-05-17T05:43:59.456Z,98925.16
2023-05-17T05:46:27.045Z,98934.41
2023-05-17T05:48:55.005Z,98932.84
2023-05-17T05:51:22.861Z,98940.53
2023-05-17T05:53:51.486Z,98946.66
2023-05-17T05:56:20.126Z,98939.63
2023-05-17T05:58:47.599Z,98954.19
2023-05-17T06:01:15.091Z,98940.53
2023-05-17T06:03:42.812Z,98936.09
2023-05-17T06:06:10.864Z,98939.03
2023-05-17T06:08:38.563Z,98940.81
2023-05-17T06:11:06.388Z,98942.03
2023-05-17T06:13:33.863Z,98945.50
2023-05-17T06:16:01.377Z,98935.97
2023-05-17T06:18:29.275Z,98935.13
2023-05-17T06:20:56.773Z,98943.16
2023-05-17T06:23:24.516Z,98935.63
2023-05-17T06:25:52.686Z,98939.31
2023-05-17T06:28:20.210Z,98947.59
2023-05-17T06:30:47.857Z,98947.44
2023-05-17T06:33:15.940Z,98944.59
2023-05-17T06:35:55.675Z,98946.66
2023-05-17T06:38:25.377Z,98961.66
2023-05-17T06:40:55.878Z,98952.84
2023-05-17T06:43:23.389Z,98952.84
2023-05-17T06:45:51.470Z,98964.03
2023-05-17T06:48:19.232Z,98963.13
2023-05-17T06:50:46.859Z,98973.41
2023-05-17T06:53:14.626Z,98987.50
2023-05-17T06:55:43.162Z,98978.25
2023-05-17T06:58:10.743Z,98974.88
2023-05-17T07:00:38.509Z,98984.41
2023-05-17T07:03:06.101Z,98991.25
2023-05-17T07:05:34.091Z,98994.44
2023-05-17T07:08:02.165Z,98996.75
2023-05-17T07:10:29.762Z,98994.03
2023-05-17T07:12:57.242Z,99000.22
2023-05-17T07:15:25.155Z,98996.69
2023-05-17T07:17:52.648Z,99002.00
2023-05-17T07:20:20.635Z,99005.56
2023-05-17T07:22:48.584Z,99003.88
2023-05-17T07:25:18.082Z,98989.69
2023-05-17T07:27:47.916Z,98986.75
2023-05-17T07:30:15.691Z,98990.34
2023-05-17T07:32:43.275Z,98990.47
2023-05-17T07:35:11.004Z,98994.06
2023-05-17T07:37:38.734Z,98991.78
2023-05-17T07:40:06.956Z,99003.00
2023-05-17T07:42:34.526Z,99001.59
2023-05-17T07:45:02.476Z,99008.75
2023-05-17T07:47:30.857Z,99012.38
2023-05-17T07:49:58.375Z,99013.41
2023-05-17T07:52:26.147Z,99013.22
2023-05-17T07:54:53.596Z,99011.91
2023-05-17T07:57:21.309Z,99017.94
2023-05-17T07:59:49.069Z,99021.72
2023-05-17T08:02:16.602Z,99012.59
2023-05-17T08:04:45.332Z,99025.78
2023-05-17T08:07:12.812Z,99022.59
2023-05-17T08:09:41.404Z,99022.69
2023-05-17T08:12:09.194Z,99032.50
2023-05-17T08:14:36.706Z,99033.53
2023-05-17T08:17:04.457Z,99026.16
2023-05-17T08:19:32.385Z,99031.09
2023-05-17T08:21:59.934Z,99029.28
2023-05-17T08:24:27.528Z,99033.63
2023-05-17T08:26:55.295Z,99028.75
2023-05-17T08:29:22.817Z,99036.59
2023-05-17T08:31:51.691Z,99037.53
2023-05-17T08:34:19.471Z,99040.91
2023-05-17T08:36:47.628Z,99046.72
2023-05-17T08:39:15.539Z,99049.63
2023-05-17T08:41:43.339Z,99051.88
2023-05-17T08:44:11.093Z,99045.47
2023-05-17T08:46:40.012Z,99051.56
2023-05-17T08:49:08.521Z,99045.78
2023-05-17T08:51:36.551Z,99049.25
2023-05-17T08:54:08.448Z,99046.25
2023-05-17T08:56:39.530Z,99041.22
2023-05-17T08:59:10.412Z,99045.59
2023-05-17T09:01:43.495Z,99042.06
2023-05-17T09:04:11.313Z,99049.53
2023-05-17T09:06:39.104Z,99051.88
2023-05-17T09:09:09.136Z,99048.03
2023-05-17T09:11:36.649Z,99046.72
2023-05-17T09:14:05.954Z,99041.50
2023-05-17T09:16:37.546Z,99038.59
2023-05-17T09:19:07.502Z,99035.03
2023-05-17T09:21:37.313Z,99039.22
2023-05-17T09:24:08.042Z,99034.16
2023-05-17T09:26:39.243Z,99037.00
2023-05-17T09:29:14.437Z,99037.66
2023-05-17T09:31:42.684Z,99052.53
2023-05-17T09:34:10.694Z,99049.81
2023-05-17T09:36:42.217Z,99060.84
2023-05-17T09:39:12.892Z,99059.53
2023-05-17T09:41:43.625Z,99066.66
2023-05-17T09:44:12.237Z,99077.38
2023-05-17T09:46:45.519Z,99079.47
2023-05-17T09:49:14.141Z,99089.47
2023-05-17T09:51:43.126Z,99089.28
2023-05-17T09:54:11.384Z,99096.50
2023-05-17T09:56:39.448Z,99092.31
2023-05-17T09:59:15.400Z,99090.91
2023-05-17T10:01:45.331Z,99098.53
2023-05-17T10:04:13.969Z,99101.53
2023-05-17T10:09:14.279Z,99108.91
2023-05-17T10:11:44.287Z,99110.41
2023-05-17T10:14:24.997Z,99112.66
2023-05-17T10:16:53.670Z,99110.03
2023-05-17T10:19:21.754Z,99104.44
2023-05-17T10:21:51.180Z,99108.50
2023-05-17T10:24:21.583Z,99105.78
2023-05-17T10:26:52.207Z,99112.16
2023-05-17T10:29:21.376Z,99114.09
2023-05-17T10:31:51.183Z,99118.25
2023-05-17T10:34:20.089Z,99109.00
2023-05-17T10:36:50.047Z,99116.97
2023-05-17T10:39:18.088Z,99120.66
2023-05-17T10:41:46.876Z,99124.25
2023-05-17T10:44:16.408Z,99130.25
2023-05-17T10:46:57.624Z,99131.84
2023-05-17T10:49:29.865Z,99132.72
2023-05-17T10:52:18.443Z,99126.66
2023-05-17T10:54:49.445Z,99120.50
2023-05-17T10:57:49.121Z,99134.72
2023-05-17T11:00:22.021Z,99135.44
2023-05-17T11:02:50.903Z,99149.91
2023-05-17T11:05:26.168Z,99150.25
2023-05-17T11:08:13.048Z,99152.19
2023-05-17T11:11:10.498Z,99163.06
2023-05-17T11:13:52.223Z,99163.84
2023-05-17T11:16:28.671Z,99149.97
2023-05-17T11:18:58.455Z,99158.66
2023-05-17T11:21:28.513Z,99161.16
2023-05-17T11:24:01.601Z,99165.94
2023-05-17T11:26:34.629Z,99164.63
2023-05-17T11:29:12.389Z,99165.88
2023-05-17T11:31:44.967Z,99157.50
2023-05-17T11:34:12.615Z,99163.53
2023-05-17T11:36:51.876Z,99164.53
2023-05-17T11:39:22.137Z,99170.53
2023-05-17T11:41:51.697Z,99170.75
2023-05-17T11:44:29.569Z,99177.53
2023-05-17T11:47:02.930Z,99177.78
2023-05-17T11:49:35.624Z,99177.75
2023-05-17T11:52:05.696Z,99180.44
2023-05-17T11:54:33.839Z,99185.25
2023-05-17T11:57:03.883Z,99180.03
2023-05-17T11:59:39.889Z,99181.81
2023-05-17T12:02:07.735Z,99178.72
2023-05-17T12:04:39.882Z,99189.09
2023-05-17T12:07:11.216Z,99184.59
2023-05-17T12:09:39.784Z,99189.69
2023-05-17T12:12:08.644Z,99185.94
2023-05-17T12:14:36.659Z,99189.44
2023-05-17T12:17:08.780Z,99189.44
2023-05-17T12:19:37.401Z,99190.50
2023-05-17T12:22:12.494Z,99189.78
2023-05-17T12:24:42.449Z,99188.06
2023-05-17T12:27:10.669Z,99188.25
2023-05-17T12:29:39.137Z,99185.75
2023-05-17T12:32:08.753Z,99190.50
2023-05-17T12:34:37.037Z,99181.91
2023-05-17T12:37:10.192Z,99191.53
2023-05-17T12:39:38.180Z,99189.78
2023-05-17T12:42:06.134Z,99191.28
2023-05-17T12:44:33.721Z,99190.22
2023-05-17T12:47:02.951Z,99199.69
2023-05-17T12:49:30.498Z,99196.69
2023-05-17T12:52:04.354Z,99202.66
2023-05-17T12:54:33.185Z,99206.28
2023-05-17T12:57:12.572Z,99210.19
2023-05-17T12:59:48.208Z,99206.69
2023-05-17T13:02:16.266Z,99205.56
2023-05-17T13:04:44.316Z,99212.38
2023-05-17T13:07:12.450Z,99208.28
2023-05-17T13:09:49.862Z,99208.16
2023-05-17T13:12:22.866Z,99209.53
2023-05-17T13:14:53.179Z,99213.31
2023-05-17T13:17:35.147Z,99210.22
2023-05-17T13:20:03.473Z,99214.59
2023-05-17T13:22:31.484Z,99210.81
2023-05-17T13:24:58.947Z,99215.31
2023-05-17T13:27:26.372Z,99214.13
2023-05-17T13:29:54.115Z,99225.38
2023-05-17T13:32:21.818Z,99226.47
2023-05-17T13:34:49.425Z,99230.44
2023-05-17T13:37:17.283Z,99227.12
2023-05-17T13:39:44.827Z,99220.44
2023-05-17T13:42:12.932Z,99225.28
2023-05-17T13:44:40.878Z,99220.09
2023-05-17T13:47:08.439Z,99225.66
2023-05-17T13:49:36.237Z,99223.50
2023-05-17T13:52:04.139Z,99222.47
2023-05-17T13:54:31.689Z,99223.09
2023-05-17T13:56:59.339Z,99220.25
2023-05-17T13:59:27.287Z,99217.91
2023-05-17T14:01:54.782Z,99221.78
2023-05-17T14:04:22.718Z,99229.94
2023-05-17T14:06:54.793Z,99223.09
2023-05-17T14:09:34.561Z,99235.12
2023-05-17T14:12:02.182Z,99233.38
2023-05-17T14:14:30.522Z,99232.72
2023-05-17T14:16:58.075Z,99239.13
2023-05-17T14:19:25.844Z,99238.69
2023-05-17T14:21:53.757Z,99237.34
2023-05-17T14:24:21.240Z,99239.69
2023-05-17T14:26:48.781Z,99243.78
2023-05-17T14:29:16.885Z,99246.16
2023-05-17T14:31:44.350Z,99257.97
2023-05-17T14:34:14.373Z,99260.56
2023-05-17T14:36:42.220Z,99270.53
2023-05-17T14:39:10.452Z,99258.81
2023-05-17T14:41:39.364Z,99266.41
2023-05-17T14:44:07.164Z,99269.59
2023-05-17T14:46:35.005Z,99265.72
2023-05-17T14:49:02.566Z,99275.53
2023-05-17T14:51:30.556Z,99276.37
2023-05-17T14:53:59.136Z,99268.31
2023-05-17T14:56:27.772Z,99281.03
2023-05-17T14:58:55.545Z,99281.34
2023-05-17T15:01:23.323Z,99281.50
2023-05-17T15:03:51.284Z,99285.53
2023-05-17T15:06:24.781Z,99283.03
2023-05-17T15:08:52.725Z,99284.28
2023-05-17T15:11:21.864Z,99294.75
2023-05-17T15:13:49.390Z,99291.31
2023-05-17T15:16:16.892Z,99294.09
2023-05-17T15:18:44.749Z,99306.44
2023-05-17T15:21:12.286Z,99307.94
2023-05-17T15:23:39.798Z,99315.34
2023-05-17T15:26:07.709Z,99313.53
2023-05-17T15:28:35.168Z,99327.09
2023-05-17T15:31:06.276Z,99331.91
2023-05-17T15:33:34.136Z,99324.53
2023-05-17T15:36:01.764Z,99319.12
2023-05-17T15:38:29.221Z,99331.78
2023-05-17T15:41:07.524Z,99326.72
2023-05-17T15:43:35.165Z,99327.22
2023-05-17T15:46:02.877Z,99331.25
2023-05-17T15:48:30.684Z,99322.37
2023-05-17T15:50:58.646Z,99327.59
2023-05-17T15:53:27.276Z,99338.00
2023-05-17T15:55:55.142Z,99333.31
2023-05-17T15:58:24.244Z,99326.59
2023-05-17T16:00:51.967Z,99331.16
2023-05-17T16:03:19.788Z,99341.94
2023-05-17T16:05:47.508Z,99347.00
2023-05-17T16:08:15.026Z,99350.06
2023-05-17T16:10:42.864Z,99346.25
2023-05-17T16:13:10.293Z,99338.13
2023-05-17T16:15:37.865Z,99346.88
2023-05-17T16:18:05.706Z,99344.19
2023-05-17T16:20:33.874Z,99349.47
2023-05-17T16:23:01.356Z,99347.69
2023-05-17T16:25:29.337Z,99356.38
2023-05-17T16:28:14.492Z,99353.91
2023-05-17T16:30:42.308Z,99367.41
2023-05-17T16:33:09.924Z,99359.47
2023-05-17T16:35:37.486Z,99369.22
2023-05-17T16:38:05.304Z,99377.97
2023-05-17T16:40:33.057Z,99384.25
2023-05-17T16:43:00.580Z,99377.31
2023-05-17T16:45:28.437Z,99377.25
2023-05-17T16:47:56.210Z,99384.56
2023-05-17T16:50:23.802Z,99386.59
2023-05-17T16:52:51.897Z,99381.44
2023-05-17T16:55:19.444Z,99385.06
2023-05-17T16:57:46.910Z,99386.19
2023-05-17T17:00:15.077Z,99387.12
2023-05-17T17:02:42.553Z,99386.50
2023-05-17T17:05:10.501Z,99384.72
2023-05-17T17:07:38.280Z,99389.31
2023-05-17T17:10:06.359Z,99397.47
2023-05-17T17:12:33.830Z,99402.47
2023-05-17T17:15:02.272Z,99405.16
2023-05-17T17:17:30.241Z,99397.44
2023-05-17T17:19:57.806Z,99408.28
2023-05-17T17:22:25.647Z,99408.75
2023-05-17T17:24:53.483Z,99414.81
2023-05-17T17:27:20.985Z,99416.16
2023-05-17T17:29:48.778Z,99415.19
2023-05-17T17:32:16.475Z,99419.38
2023-05-17T17:34:44.073Z,99420.38
2023-05-17T17:37:11.878Z,99419.19
2023-05-17T17:39:39.509Z,99422.06
2023-05-17T17:42:07.044Z,99425.12
2023-05-17T17:44:35.058Z,99421.56
2023-05-17T17:47:02.581Z,99425.47
2023-05-17T17:49:30.313Z,99444.00
2023-05-17T17:51:58.316Z,99432.38
2023-05-17T17:54:26.040Z,99434.75
2023-05-17T17:56:53.511Z,99431.63
2023-05-17T17:59:21.398Z,99438.75
2023-05-17T18:01:49.174Z,99434.22
2023-05-17T18:04:16.940Z,99448.62
2023-05-17T18:06:45.894Z,99443.00
2023-05-17T18:09:13.386Z,99438.06
2023-05-17T18:11:41.168Z,99431.91
2023-05-17T18:14:08.946Z,99433.38
2023-05-17T18:16:36.493Z,99437.34
2023-05-17T18:19:04.686Z,99441.69
2023-05-17T18:21:32.398Z,99458.78
2023-05-17T18:24:00.455Z,99459.72
2023-05-17T18:26:28.343Z,99460.41
2023-05-17T18:28:55.968Z,99457.41
2023-05-17T18:31:23.438Z,99457.72
2023-05-17T18:33:51.314Z,99463.09
2023-05-17T18:36:19.098Z,99461.63
2023-05-17T18:38:46.773Z,99464.25
2023-05-17T18:41:14.833Z,99466.47
2023-05-17T18:43:42.371Z,99463.59
2023-05-17T18:46:10.447Z,99474.63
2023-05-17T18:48:39.148Z,99472.78
2023-05-17T18:51:06.958Z,99463.47
2023-05-17T18:53:36.167Z,99472.72
2023-05-17T18:56:04.506Z,99461.72
2023-05-17T18:58:32.153Z,99453.56
2023-05-17T19:01:01.594Z,99454.97
2023-05-17T19:03:29.913Z,99451.50
2023-05-17T19:05:57.505Z,99460.44
2023-05-17T19:08:25.422Z,99451.41
2023-05-17T19:10:53.177Z,99466.47
2023-05-17T19:13:20.705Z,99463.28
2023-05-17T19:15:48.558Z,99472.78
2023-05-17T19:18:16.540Z,99468.28
2023-05-17T19:20:44.188Z,99469.75
2023-05-17T19:23:12.181Z,99475.19
2023-05-17T19:25:40.412Z,99483.13
2023-05-17T19:28:11.798Z,99494.12
2023-05-17T19:30:39.348Z,99496.88
2023-05-17T19:33:07.466Z,99510.12
2023-05-17T19:35:37.135Z,99510.94
2023-05-17T19:38:04.859Z,99516.88
2023-05-17T19:40:32.844Z,99529.00
2023-05-17T19:43:02.121Z,99530.19
2023-05-17T19:45:29.678Z,99534.66
2023-05-17T19:47:57.936Z,99540.09
2023-05-17T19:50:25.601Z,99542.56
2023-05-17T19:53:01.018Z,99543.94
2023-05-17T19:55:30.422Z,99535.69
2023-05-17T19:57:58.094Z,99533.75
2023-05-17T20:00:25.957Z,99540.19
2023-05-17T20:02:54.341Z,99539.03
2023-05-17T20:05:22.194Z,99546.06
2023-05-17T20:07:49.693Z,99542.88
2023-05-17T20:10:17.710Z,99551.87
2023-05-17T20:12:45.240Z,99544.69
2023-05-17T20:15:12.898Z,99550.72
2023-05-17T20:17:40.796Z,99553.38
2023-05-17T20:20:08.880Z,99547.47
2023-05-17T20:22:37.782Z,99550.34
2023-05-17T20:25:06.036Z,99545.19
2023-05-17T20:27:33.540Z,99553.19
2023-05-17T20:30:01.068Z,99545.88
2023-05-17T20:32:29.249Z,99552.69
2023-05-17T20:34:56.803Z,99551.84
2023-05-17T20:37:24.463Z,99546.44
2023-05-17T20:39:53.652Z,99555.19
2023-05-17T20:42:22.427Z,99553.16
2023-05-17T20:44:53.537Z,99549.16
2023-05-17T20:47:22.633Z,99551.87
2023-05-17T20:49:50.440Z,99550.22
2023-05-17T20:52:27.779Z,99557.13
2023-05-17T20:55:08.062Z,99551.44
2023-05-17T20:57:35.758Z,99558.87
2023-05-17T21:00:05.387Z,99560.97
2023-05-17T21:02:33.634Z,99558.66
2023-05-17T21:05:03.335Z,99562.38
2023-05-17T21:07:31.605Z,99562.09
2023-05-17T21:09:59.416Z,99564.91
2023-05-17T21:12:26.897Z,99565.50
2023-05-17T21:15:14.408Z,99578.66
2023-05-17T21:17:42.388Z,99566.19
2023-05-17T21:20:10.450Z,99568.19
2023-05-17T21:22:38.084Z,99573.87
2023-05-17T21:25:06.285Z,99571.69
2023-05-17T21:27:34.164Z,99575.25
2023-05-17T21:30:01.643Z,99579.25
2023-05-17T21:32:30.006Z,99575.97
2023-05-17T21:34:59.654Z,99569.72
2023-05-17T21:37:27.311Z,99567.44
2023-05-17T21:39:55.107Z,99569.19
2023-05-17T21:42:22.633Z,99579.25
2023-05-17T21:44:50.108Z,99577.41
2023-05-17T21:47:17.819Z,99574.56
2023-05-17T21:49:45.464Z,99585.03
2023-05-17T21:52:12.970Z,99585.00
2023-05-17T21:54:41.406Z,99583.47
2023-05-17T21:57:08.913Z,99596.50
2023-05-17T21:59:36.554Z,99590.44
2023-05-17T22:02:04.468Z,99591.84
2023-05-17T22:04:32.253Z,99596.66
2023-05-17T22:06:59.795Z,99589.31
2023-05-17T22:09:27.303Z,99590.16
2023-05-17T22:11:58.731Z,99586.47
2023-05-17T22:14:27.454Z,99589.03
2023-05-17T22:16:56.715Z,99590.13
2023-05-17T22:19:24.756Z,99591.72
2023-05-17T22:21:52.306Z,99593.56
2023-05-17T22:24:20.502Z,99593.84
2023-05-17T22:26:47.970Z,99591.09
2023-05-17T22:29:15.488Z,99596.37
2023-05-17T22:31:43.285Z,99602.25
2023-05-17T22:34:10.948Z,99605.00
2023-05-17T22:36:42.287Z,99601.19
2023-05-17T22:39:10.090Z,99608.38
2023-05-17T22:41:37.667Z,99603.44
2023-05-17T22:44:05.234Z,99607.31
2023-05-17T22:46:33.367Z,99606.28
2023-05-17T22:49:01.666Z,99609.75
2023-05-17T22:51:30.169Z,99623.66
2023-05-17T22:53:58.103Z,99615.50
2023-05-17T22:56:26.235Z,99611.75
2023-05-17T22:58:53.734Z,99625.34
2023-05-17T23:01:21.513Z,99611.69
2023-05-17T23:03:49.001Z,99613.34
2023-05-17T23:06:16.706Z,99618.91
2023-05-17T23:08:45.462Z,99612.13
2023-05-17T23:11:13.878Z,99622.88
2023-05-17T23:13:42.088Z,99616.91
2023-05-17T23:16:10.742Z,99618.72
2023-05-17T23:18:40.222Z,99612.66
2023-05-17T23:21:08.293Z,99620.03
2023-05-17T23:23:38.113Z,99631.22
2023-05-17T23:26:06.058Z,99626.22
2023-05-17T23:28:33.547Z,99633.88
2023-05-17T23:31:02.383Z,99630.69
2023-05-17T23:33:31.377Z,99631.12
2023-05-17T23:35:58.945Z,99622.59
2023-05-17T23:38:26.767Z,99627.44
2023-05-17T23:40:54.432Z,99627.53
2023-05-17T23:43:22.000Z,99625.88
2023-05-17T23:45:49.741Z,99628.50
2023-05-17T23:48:20.773Z,99633.53
2023-05-17T23:50:48.321Z,99630.63
2023-05-17T23:53:18.586Z,99625.09
2023-05-17T23:55:46.221Z,99630.78
2023-05-17T23:58:13.658Z,99620.31
